createdAt,value
2018-05-21T00:00:57.332Z,9.50
2018-05-21T00:03:26.389Z,9.30
2018-05-21T00:05:54.668Z,9.30
2018-05-21T00:08:23.018Z,9.20
2018-05-21T00:10:51.301Z,9.20
2018-05-21T00:13:19.589Z,9.10
2018-05-21T00:15:47.902Z,9.10
2018-05-21T00:18:16.950Z,9.00
2018-05-21T00:20:45.266Z,8.90
2018-05-21T00:23:13.546Z,8.80
2018-05-21T00:25:41.824Z,8.70
2018-05-21T00:28:10.145Z,8.80
2018-05-21T00:30:38.433Z,8.70
2018-05-21T00:33:06.716Z,8.80
2018-05-21T00:35:35.029Z,8.80
2018-05-21T00:38:04.078Z,8.60
2018-05-21T00:40:32.362Z,8.60
2018-05-21T00:43:00.678Z,8.40
2018-05-21T00:45:28.958Z,8.70
2018-05-21T00:47:57.237Z,8.90
2018-05-21T00:50:25.717Z,8.90
2018-05-21T00:52:53.965Z,9.00
2018-05-21T00:55:34.037Z,8.90
2018-05-21T00:58:03.121Z,9.10
2018-05-21T01:00:31.432Z,9.10
2018-05-21T01:03:00.489Z,9.00
2018-05-21T01:05:28.765Z,9.00
2018-05-21T01:07:57.312Z,9.30
2018-05-21T01:10:25.598Z,9.20
2018-05-21T01:12:53.884Z,9.10
2018-05-21T01:15:22.208Z,9.00
2018-05-21T01:17:51.276Z,9.20
2018-05-21T01:20:19.558Z,9.20
2018-05-21T01:22:47.874Z,9.20
2018-05-21T01:25:16.969Z,9.00
2018-05-21T01:27:46.053Z,8.90
2018-05-21T01:30:14.377Z,8.80
2018-05-21T01:32:42.697Z,8.70
2018-05-21T01:35:10.985Z,8.60
2018-05-21T01:37:39.310Z,8.70
2018-05-21T01:40:07.594Z,8.70
2018-05-21T01:42:35.911Z,8.60
2018-05-21T01:45:04.193Z,8.60
2018-05-21T01:47:32.481Z,8.60
2018-05-21T01:50:00.794Z,8.70
2018-05-21T01:52:29.171Z,8.80
2018-05-21T01:54:57.565Z,8.80
2018-05-21T01:57:25.848Z,8.70
2018-05-21T01:59:54.237Z,8.90
2018-05-21T02:02:22.721Z,8.80
2018-05-21T02:04:51.025Z,8.90
2018-05-21T02:07:19.312Z,8.70
2018-05-21T02:09:47.629Z,8.70
2018-05-21T02:12:16.672Z,8.60
2018-05-21T02:14:44.961Z,8.60
2018-05-21T02:17:14.176Z,8.60
2018-05-21T02:19:42.457Z,8.60
2018-05-21T02:22:10.781Z,8.60
2018-05-21T02:24:39.077Z,8.70
2018-05-21T02:27:07.503Z,8.60
2018-05-21T02:29:35.956Z,8.50
2018-05-21T02:32:04.243Z,8.50
2018-05-21T02:34:32.522Z,8.50
2018-05-21T02:37:00.832Z,8.50
2018-05-21T02:39:29.119Z,8.50
2018-05-21T02:41:57.819Z,8.30
2018-05-21T02:44:26.102Z,8.30
2018-05-21T02:46:54.381Z,8.30
2018-05-21T02:49:22.993Z,8.30
2018-05-21T02:51:51.274Z,8.30
2018-05-21T02:54:19.557Z,8.40
2018-05-21T02:56:48.177Z,8.60
2018-05-21T02:59:16.458Z,8.80
2018-05-21T03:01:44.743Z,9.00
2018-05-21T03:04:13.225Z,9.10
2018-05-21T03:06:41.529Z,9.20
2018-05-21T03:09:09.810Z,9.20
2018-05-21T03:11:38.205Z,9.20
2018-05-21T03:14:06.602Z,9.20
2018-05-21T03:16:34.877Z,9.20
2018-05-21T03:19:03.183Z,9.10
2018-05-21T03:21:31.669Z,9.00
2018-05-21T03:23:59.951Z,9.00
2018-05-21T03:26:28.346Z,9.00
2018-05-21T03:28:56.625Z,9.10
2018-05-21T03:31:24.910Z,9.20
2018-05-21T03:33:53.225Z,9.20
2018-05-21T03:36:21.545Z,9.20
2018-05-21T03:38:50.715Z,9.30
2018-05-21T03:41:18.993Z,9.30
2018-05-21T03:43:47.273Z,9.80
2018-05-21T03:46:15.601Z,10.60
2018-05-21T03:48:44.701Z,11.70
2018-05-21T03:51:13.085Z,11.60
2018-05-21T03:53:41.405Z,12.10
2018-05-21T03:56:10.881Z,12.20
2018-05-21T03:58:51.106Z,12.20
2018-05-21T04:01:31.175Z,12.00
2018-05-21T04:03:59.520Z,11.80
2018-05-21T04:06:27.805Z,11.60
2018-05-21T04:08:56.292Z,11.70
2018-05-21T04:11:24.586Z,11.70
2018-05-21T04:13:52.876Z,11.60
2018-05-21T04:16:21.188Z,11.90
2018-05-21T04:18:50.344Z,12.00
2018-05-21T04:21:18.669Z,12.00
2018-05-21T04:23:46.966Z,11.90
2018-05-21T04:26:15.253Z,11.70
2018-05-21T04:28:43.843Z,11.70
2018-05-21T04:31:12.137Z,11.60
2018-05-21T04:33:41.949Z,11.90
2018-05-21T04:36:10.439Z,11.90
2018-05-21T04:38:38.837Z,12.10
2018-05-21T04:41:07.157Z,12.20
2018-05-21T04:43:36.245Z,12.40
2018-05-21T04:46:04.556Z,12.40
2018-05-21T04:48:33.621Z,12.80
2018-05-21T04:51:01.920Z,12.80
2018-05-21T04:53:30.254Z,12.90
2018-05-21T04:55:58.546Z,13.00
2018-05-21T04:58:26.893Z,13.10
2018-05-21T05:00:55.297Z,13.20
2018-05-21T05:03:25.092Z,13.20
2018-05-21T05:05:53.405Z,13.10
2018-05-21T05:08:21.698Z,13.10
2018-05-21T05:10:50.086Z,13.00
2018-05-21T05:13:18.404Z,12.80
2018-05-21T05:15:47.473Z,13.00
2018-05-21T05:18:15.873Z,13.00
2018-05-21T05:20:45.698Z,13.10
2018-05-21T05:23:14.021Z,13.20
2018-05-21T05:25:42.381Z,13.30
2018-05-21T05:28:10.660Z,13.40
2018-05-21T05:30:38.940Z,13.50
2018-05-21T05:33:07.270Z,13.40
2018-05-21T05:35:36.322Z,13.30
2018-05-21T05:38:04.604Z,13.20
2018-05-21T05:40:32.925Z,13.30
2018-05-21T05:43:01.312Z,13.70
2018-05-21T05:45:29.646Z,13.90
2018-05-21T05:47:57.938Z,13.70
2018-05-21T05:50:26.229Z,13.90
2018-05-21T05:52:54.560Z,13.80
2018-05-21T05:55:22.845Z,14.00
2018-05-21T05:57:51.569Z,14.10
2018-05-21T06:00:19.961Z,14.20
2018-05-21T06:02:48.244Z,14.50
2018-05-21T06:05:16.569Z,14.50
2018-05-21T06:07:45.621Z,14.60
2018-05-21T06:10:13.933Z,14.60
2018-05-21T06:12:42.261Z,14.60
2018-05-21T06:15:10.555Z,14.80
2018-05-21T06:17:38.877Z,15.10
2018-05-21T06:20:07.162Z,15.00
2018-05-21T06:22:35.481Z,15.10
2018-05-21T06:25:03.773Z,15.40
2018-05-21T06:27:32.260Z,15.20
2018-05-21T06:30:00.541Z,15.40
2018-05-21T06:32:28.845Z,15.30
2018-05-21T06:34:57.169Z,15.40
2018-05-21T06:37:26.229Z,15.70
2018-05-21T06:39:54.565Z,15.70
2018-05-21T06:42:23.619Z,15.80
2018-05-21T06:44:51.911Z,15.80
2018-05-21T06:47:20.220Z,15.80
2018-05-21T06:49:48.509Z,16.00
2018-05-21T06:52:16.825Z,16.00
2018-05-21T06:54:45.186Z,16.10
2018-05-21T06:57:13.569Z,16.10
2018-05-21T06:59:42.230Z,16.30
2018-05-21T07:02:10.472Z,16.50
2018-05-21T07:04:38.765Z,16.80
2018-05-21T07:07:07.086Z,17.10
2018-05-21T07:09:35.430Z,17.20
2018-05-21T07:12:03.751Z,17.50
2018-05-21T07:14:32.800Z,17.60
2018-05-21T07:17:01.334Z,17.60
2018-05-21T07:19:29.621Z,17.60
2018-05-21T07:21:57.914Z,17.50
2018-05-21T07:24:26.232Z,17.70
2018-05-21T07:26:54.535Z,17.80
2018-05-21T07:29:22.869Z,17.60
2018-05-21T07:31:51.204Z,17.70
2018-05-21T07:34:19.497Z,18.10
2018-05-21T07:36:47.785Z,18.20
2018-05-21T07:39:16.098Z,18.30
2018-05-21T07:41:44.389Z,18.50
2018-05-21T07:44:12.919Z,18.80
2018-05-21T07:46:41.197Z,18.70
2018-05-21T07:49:09.477Z,18.80
2018-05-21T07:51:37.851Z,19.00
2018-05-21T07:54:06.104Z,18.90
2018-05-21T07:56:34.777Z,18.90
2018-05-21T07:59:03.077Z,18.80
2018-05-21T08:01:32.161Z,19.20
2018-05-21T08:04:01.995Z,18.80
2018-05-21T08:06:30.282Z,18.80
2018-05-21T08:08:58.605Z,18.90
2018-05-21T08:11:27.664Z,19.50
2018-05-21T08:13:55.982Z,19.50
2018-05-21T08:16:24.360Z,19.80
2018-05-21T08:18:53.048Z,20.10
2018-05-21T08:21:21.334Z,20.50
2018-05-21T08:23:49.637Z,20.40
2018-05-21T08:26:17.958Z,20.40
2018-05-21T08:28:47.010Z,20.60
2018-05-21T08:31:15.420Z,20.50
2018-05-21T08:33:43.707Z,20.30
2018-05-21T08:36:12.024Z,20.20
2018-05-21T08:38:41.091Z,20.10
2018-05-21T08:41:09.365Z,20.10
2018-05-21T08:43:37.686Z,20.20
2018-05-21T08:46:05.971Z,19.90
2018-05-21T08:48:35.149Z,20.00
2018-05-21T08:51:04.498Z,20.50
2018-05-21T08:53:34.287Z,20.70
2018-05-21T08:56:02.578Z,20.70
2018-05-21T08:58:31.196Z,20.80
2018-05-21T09:00:59.484Z,21.00
2018-05-21T09:03:27.759Z,20.40
2018-05-21T09:06:00.668Z,20.30
2018-05-21T09:08:28.949Z,20.70
2018-05-21T09:10:57.270Z,21.10
2018-05-21T09:13:25.550Z,21.10
2018-05-21T09:15:54.053Z,21.20
2018-05-21T09:18:22.412Z,21.00
2018-05-21T09:20:50.697Z,21.30
2018-05-21T09:23:19.016Z,21.60
2018-05-21T09:25:47.411Z,21.50
2018-05-21T09:28:15.798Z,21.40
2018-05-21T09:30:44.076Z,21.40
2018-05-21T09:33:12.389Z,21.70
2018-05-21T09:35:40.714Z,21.60
2018-05-21T09:38:08.995Z,21.70
2018-05-21T09:40:37.922Z,22.00
2018-05-21T09:43:06.573Z,21.90
2018-05-21T09:45:35.665Z,21.70
2018-05-21T09:48:04.005Z,21.70
2018-05-21T09:50:32.259Z,22.10
2018-05-21T09:53:01.644Z,22.20
2018-05-21T09:55:29.925Z,22.20
2018-05-21T09:57:58.214Z,22.20
2018-05-21T10:00:26.529Z,22.00
2018-05-21T10:02:54.825Z,21.90
2018-05-21T10:07:57.733Z,22.00
2018-05-21T10:10:26.056Z,22.00
2018-05-21T10:12:55.109Z,22.20
2018-05-21T10:15:23.393Z,22.20
2018-05-21T10:17:51.918Z,22.50
2018-05-21T10:20:20.212Z,22.90
2018-05-21T10:22:49.268Z,22.60
2018-05-21T10:25:17.593Z,22.60
2018-05-21T10:27:45.882Z,21.80
2018-05-21T10:30:14.375Z,22.00
2018-05-21T10:32:43.469Z,22.70
2018-05-21T10:35:11.761Z,22.70
2018-05-21T10:37:40.086Z,22.90
2018-05-21T10:40:09.885Z,22.70
2018-05-21T10:42:38.601Z,22.80
2018-05-21T10:45:06.898Z,22.40
2018-05-21T10:47:35.277Z,22.30
2018-05-21T10:50:03.979Z,22.40
2018-05-21T10:52:32.267Z,22.40
2018-05-21T10:55:00.546Z,22.30
2018-05-21T10:57:28.917Z,22.10
2018-05-21T10:59:57.233Z,22.20
2018-05-21T11:02:25.557Z,22.30
2018-05-21T11:04:54.604Z,22.50
2018-05-21T11:07:22.945Z,22.50
2018-05-21T11:09:52.010Z,22.80
2018-05-21T11:12:20.297Z,22.80
2018-05-21T11:14:48.623Z,22.70
2018-05-21T11:17:16.910Z,22.30
2018-05-21T11:19:45.241Z,22.30
2018-05-21T11:22:13.529Z,22.20
2018-05-21T11:24:41.909Z,22.40
2018-05-21T11:27:10.972Z,22.30
2018-05-21T11:29:39.312Z,22.30
2018-05-21T11:32:07.610Z,22.40
2018-05-21T11:34:35.941Z,22.40
2018-05-21T11:37:05.869Z,22.30
2018-05-21T11:39:34.862Z,22.30
2018-05-21T11:42:03.147Z,22.60
2018-05-21T11:44:31.439Z,22.70
2018-05-21T11:46:59.841Z,22.50
2018-05-21T11:49:28.125Z,22.30
2018-05-21T11:51:56.417Z,22.60
2018-05-21T11:54:24.748Z,23.20
2018-05-21T11:56:53.819Z,22.70
2018-05-21T11:59:22.214Z,22.60
2018-05-21T12:01:50.537Z,23.30
2018-05-21T12:04:19.628Z,23.60
2018-05-21T12:06:47.921Z,23.60
2018-05-21T12:09:17.105Z,23.80
2018-05-21T12:11:45.445Z,23.80
2018-05-21T12:14:13.775Z,23.40
2018-05-21T12:16:42.113Z,23.40
2018-05-21T12:19:11.171Z,23.00
2018-05-21T12:21:39.459Z,23.00
2018-05-21T12:24:07.797Z,23.00
2018-05-21T12:26:36.110Z,23.00
2018-05-21T12:29:04.392Z,23.30
2018-05-21T12:31:32.822Z,23.50
2018-05-21T12:34:01.111Z,23.60
2018-05-21T12:36:29.446Z,23.50
2018-05-21T12:38:58.502Z,23.60
2018-05-21T12:41:26.820Z,23.60
2018-05-21T12:43:55.163Z,23.70
2018-05-21T12:46:24.314Z,23.60
2018-05-21T12:48:52.645Z,23.60
2018-05-21T12:51:20.932Z,23.30
2018-05-21T12:53:49.285Z,23.30
2018-05-21T12:56:17.614Z,23.40
2018-05-21T12:58:45.896Z,23.10
2018-05-21T13:01:14.189Z,22.90
2018-05-21T13:03:42.518Z,23.30
2018-05-21T13:06:11.243Z,23.90
2018-05-21T13:08:39.630Z,23.70
2018-05-21T13:11:08.109Z,23.90
2018-05-21T13:13:36.722Z,23.80
2018-05-21T13:16:05.009Z,22.90
2018-05-21T13:18:33.297Z,22.50
2018-05-21T13:21:01.623Z,22.50
2018-05-21T13:23:30.040Z,22.80
2018-05-21T13:25:58.257Z,23.30
2018-05-21T13:28:26.582Z,23.60
2018-05-21T13:30:55.702Z,23.80
2018-05-21T13:33:24.766Z,23.80
2018-05-21T13:35:53.050Z,23.80
2018-05-21T13:38:21.413Z,24.30
2018-05-21T13:40:49.703Z,24.10
2018-05-21T13:43:18.012Z,23.90
2018-05-21T13:45:46.329Z,24.10
2018-05-21T13:48:14.661Z,24.30
2018-05-21T13:50:42.954Z,24.00
2018-05-21T13:53:11.293Z,24.10
2018-05-21T13:55:39.625Z,24.20
2018-05-21T13:58:07.962Z,24.00
2018-05-21T14:00:36.365Z,23.40
2018-05-21T14:03:04.650Z,22.90
2018-05-21T14:05:32.981Z,22.70
2018-05-21T14:08:02.080Z,23.30
2018-05-21T14:10:31.146Z,23.90
2018-05-21T14:12:59.467Z,24.00
2018-05-21T14:15:27.806Z,24.50
2018-05-21T14:17:56.234Z,24.60
2018-05-21T14:20:24.521Z,25.10
2018-05-21T14:22:52.866Z,25.30
2018-05-21T14:25:21.571Z,24.60
2018-05-21T14:27:49.818Z,24.10
2018-05-21T14:30:18.124Z,24.10
2018-05-21T14:32:47.297Z,23.80
2018-05-21T14:35:15.579Z,23.80
2018-05-21T14:37:43.918Z,24.10
2018-05-21T14:40:12.210Z,24.60
2018-05-21T14:42:40.863Z,24.50
2018-05-21T14:45:09.150Z,24.40
2018-05-21T14:47:37.545Z,23.70
2018-05-21T14:50:06.038Z,23.30
2018-05-21T14:52:34.314Z,23.00
2018-05-21T14:55:02.616Z,23.40
2018-05-21T14:57:32.465Z,24.70
2018-05-21T15:00:00.761Z,24.70
2018-05-21T15:02:29.854Z,24.10
2018-05-21T15:04:58.142Z,24.10
2018-05-21T15:07:26.459Z,23.70
2018-05-21T15:09:54.752Z,23.60
2018-05-21T15:12:23.098Z,24.60
2018-05-21T15:14:51.385Z,27.00
2018-05-21T15:17:19.674Z,27.70
2018-05-21T15:19:48.006Z,28.30
2018-05-21T15:22:16.346Z,28.90
2018-05-21T15:24:44.640Z,30.20
2018-05-21T15:27:12.971Z,31.60
2018-05-21T15:29:42.044Z,32.10
2018-05-21T15:32:10.374Z,32.00
2018-05-21T15:34:38.980Z,30.70
2018-05-21T15:37:07.270Z,29.80
2018-05-21T15:39:35.563Z,29.20
2018-05-21T15:42:03.886Z,28.50
2018-05-21T15:44:32.221Z,29.20
2018-05-21T15:47:01.269Z,31.00
2018-05-21T15:49:29.597Z,30.90
2018-05-21T15:51:57.924Z,31.20
2018-05-21T15:54:26.217Z,31.30
2018-05-21T15:56:54.546Z,32.00
2018-05-21T15:59:22.834Z,32.60
2018-05-21T16:01:51.121Z,31.50
2018-05-21T16:04:19.489Z,29.40
2018-05-21T16:06:47.777Z,28.80
2018-05-21T16:09:16.102Z,28.70
2018-05-21T16:11:44.414Z,29.00
2018-05-21T16:14:13.504Z,28.60
2018-05-21T16:16:41.790Z,28.50
2018-05-21T16:19:10.139Z,27.00
2018-05-21T16:21:38.425Z,24.70
2018-05-21T16:24:06.705Z,24.50
2018-05-21T16:26:35.038Z,25.80
2018-05-21T16:29:03.433Z,27.10
2018-05-21T16:31:31.761Z,27.80
2018-05-21T16:34:00.857Z,27.70
2018-05-21T16:36:30.156Z,27.60
2018-05-21T16:38:58.433Z,27.60
2018-05-21T16:41:26.844Z,27.20
2018-05-21T16:43:55.221Z,27.40
2018-05-21T16:46:23.549Z,26.80
2018-05-21T16:48:51.988Z,27.10
2018-05-21T16:51:20.292Z,26.20
2018-05-21T16:53:48.591Z,25.50
2018-05-21T16:56:16.930Z,24.70
2018-05-21T16:58:45.326Z,24.10
2018-05-21T17:01:13.652Z,23.20
2018-05-21T17:03:42.040Z,23.10
2018-05-21T17:06:10.329Z,22.90
2018-05-21T17:08:38.641Z,22.90
2018-05-21T17:11:07.775Z,22.80
2018-05-21T17:13:36.230Z,22.80
2018-05-21T17:16:04.564Z,22.70
2018-05-21T17:18:32.885Z,22.70
2018-05-21T17:21:01.219Z,22.70
2018-05-21T17:23:30.274Z,22.60
2018-05-21T17:25:58.630Z,22.60
2018-05-21T17:28:26.924Z,22.30
2018-05-21T17:30:55.213Z,22.30
2018-05-21T17:33:23.538Z,22.20
2018-05-21T17:35:51.862Z,22.20
2018-05-21T17:38:20.244Z,22.20
2018-05-21T17:40:48.729Z,22.20
2018-05-21T17:43:17.013Z,22.10
2018-05-21T17:45:45.308Z,21.90
2018-05-21T17:48:13.644Z,21.90
2018-05-21T17:50:42.311Z,21.80
2018-05-21T17:53:10.607Z,21.80
2018-05-21T17:55:39.665Z,22.10
2018-05-21T17:58:07.977Z,22.10
2018-05-21T18:00:36.425Z,22.30
2018-05-21T18:03:04.807Z,22.10
2018-05-21T18:05:33.853Z,21.70
2018-05-21T18:08:02.325Z,21.60
2018-05-21T18:10:30.677Z,21.50
2018-05-21T18:12:59.738Z,21.30
2018-05-21T18:15:28.271Z,21.30
2018-05-21T18:17:56.598Z,21.20
2018-05-21T18:20:24.891Z,21.00
2018-05-21T18:22:53.239Z,21.00
2018-05-21T18:25:21.520Z,20.80
2018-05-21T18:27:49.825Z,20.70
2018-05-21T18:30:18.318Z,20.60
2018-05-21T18:32:46.548Z,20.50
2018-05-21T18:35:14.877Z,20.40
2018-05-21T18:37:43.217Z,20.30
2018-05-21T18:40:11.516Z,20.10
2018-05-21T18:42:39.856Z,20.00
2018-05-21T18:45:08.332Z,19.80
2018-05-21T18:47:36.741Z,19.70
2018-05-21T18:50:05.206Z,19.70
2018-05-21T18:52:33.481Z,19.60
2018-05-21T18:55:01.811Z,19.50
2018-05-21T18:57:31.645Z,19.30
2018-05-21T19:00:00.023Z,19.30
2018-05-21T19:02:28.413Z,19.30
2018-05-21T19:04:56.744Z,19.20
2018-05-21T19:07:25.065Z,19.10
2018-05-21T19:09:53.693Z,19.10
2018-05-21T19:12:23.484Z,18.80
2018-05-21T19:14:51.765Z,18.80
2018-05-21T19:17:20.083Z,18.70
2018-05-21T19:19:48.518Z,18.60
2018-05-21T19:22:17.901Z,18.50
2018-05-21T19:24:46.206Z,18.40
2018-05-21T19:27:14.494Z,18.40
2018-05-21T19:29:42.817Z,18.30
2018-05-21T19:32:11.103Z,18.30
2018-05-21T19:34:39.721Z,18.10
2018-05-21T19:37:08.009Z,18.00
2018-05-21T19:39:36.280Z,17.90
2018-05-21T19:42:04.902Z,17.80
2018-05-21T19:44:33.181Z,17.80
2018-05-21T19:47:01.473Z,17.80
2018-05-21T19:49:29.799Z,17.80
2018-05-21T19:51:58.117Z,17.70
2018-05-21T19:54:27.170Z,17.60
2018-05-21T19:56:55.447Z,17.60
2018-05-21T19:59:23.778Z,17.50
2018-05-21T20:01:52.069Z,17.40
2018-05-21T20:04:20.358Z,17.30
2018-05-21T20:06:48.683Z,17.20
2018-05-21T20:09:16.967Z,17.10
2018-05-21T20:11:45.251Z,17.10
2018-05-21T20:14:14.332Z,16.90
2018-05-21T20:16:42.676Z,16.90
2018-05-21T20:19:11.114Z,16.80
2018-05-21T20:21:40.249Z,16.90
2018-05-21T20:24:09.349Z,16.90
2018-05-21T20:26:38.419Z,16.80
2018-05-21T20:29:06.758Z,16.80
2018-05-21T20:31:35.841Z,16.50
2018-05-21T20:34:04.399Z,16.50
2018-05-21T20:36:32.684Z,16.40
2018-05-21T20:39:01.004Z,16.40
2018-05-21T20:41:30.842Z,16.10
2018-05-21T20:43:59.889Z,16.00
2018-05-21T20:46:28.220Z,16.00
2018-05-21T20:48:56.504Z,15.90
2018-05-21T20:51:24.805Z,15.90
2018-05-21T20:53:53.288Z,15.90
2018-05-21T20:56:21.700Z,15.80
2018-05-21T20:58:50.062Z,15.70
2018-05-21T21:01:18.406Z,15.80
2018-05-21T21:03:47.462Z,15.70
2018-05-21T21:06:15.750Z,15.70
2018-05-21T21:08:44.077Z,15.60
2018-05-21T21:11:13.172Z,15.60
2018-05-21T21:13:41.453Z,15.50
2018-05-21T21:16:09.808Z,15.60
2018-05-21T21:18:38.129Z,15.50
2018-05-21T21:21:06.485Z,15.30
2018-05-21T21:23:34.813Z,15.30
2018-05-21T21:26:03.146Z,15.20
2018-05-21T21:28:31.428Z,15.10
2018-05-21T21:31:00.534Z,15.00
2018-05-21T21:33:29.609Z,15.00
2018-05-21T21:35:57.897Z,15.00
2018-05-21T21:38:26.249Z,15.00
2018-05-21T21:40:54.553Z,14.90
2018-05-21T21:43:22.875Z,14.80
2018-05-21T21:45:51.205Z,14.70
2018-05-21T21:48:19.498Z,14.60
2018-05-21T21:50:47.826Z,14.50
2018-05-21T21:53:16.141Z,14.40
2018-05-21T21:55:44.443Z,14.40
2018-05-21T21:58:13.703Z,14.40
2018-05-21T22:00:42.016Z,14.30
2018-05-21T22:03:10.393Z,14.20
2018-05-21T22:05:38.720Z,14.20
2018-05-21T22:08:08.522Z,14.20
2018-05-21T22:10:36.867Z,14.20
2018-05-21T22:13:05.402Z,14.20
2018-05-21T22:15:33.783Z,14.00
2018-05-21T22:18:02.111Z,14.10
2018-05-21T22:20:31.159Z,13.90
2018-05-21T22:22:59.448Z,13.90
2018-05-21T22:25:27.769Z,13.80
2018-05-21T22:27:56.164Z,14.00
2018-05-21T22:30:24.498Z,13.80
2018-05-21T22:32:52.835Z,13.90
2018-05-21T22:35:21.180Z,13.90
2018-05-21T22:37:49.529Z,13.90
2018-05-21T22:40:17.821Z,13.80
2018-05-21T22:42:46.114Z,13.70
2018-05-21T22:45:14.497Z,13.40
2018-05-21T22:47:42.786Z,13.30
2018-05-21T22:50:11.126Z,13.20
2018-05-21T22:52:39.413Z,13.10
2018-05-21T22:55:07.793Z,13.00
2018-05-21T22:57:36.121Z,13.00
2018-05-21T23:00:04.408Z,12.90
2018-05-21T23:02:32.509Z,13.00
2018-05-21T23:05:00.858Z,13.00
2018-05-21T23:07:29.151Z,12.90
2018-05-21T23:09:57.688Z,12.80
2018-05-21T23:12:25.987Z,12.70
2018-05-21T23:14:54.267Z,12.80
2018-05-21T23:17:22.669Z,12.80
2018-05-21T23:19:51.005Z,12.80
2018-05-21T23:22:19.290Z,12.60
2018-05-21T23:24:47.625Z,12.50
2018-05-21T23:27:15.909Z,12.60
2018-05-21T23:29:44.212Z,12.40
2018-05-21T23:32:12.541Z,12.20
2018-05-21T23:34:40.835Z,12.20
2018-05-21T23:37:09.179Z,12.20
2018-05-21T23:39:37.478Z,11.90
2018-05-21T23:42:05.811Z,12.10
2018-05-21T23:44:34.353Z,12.10
2018-05-21T23:47:02.646Z,12.00
2018-05-21T23:49:31.872Z,12.00
2018-05-21T23:52:00.989Z,11.90
2018-05-21T23:54:30.045Z,11.80
2018-05-21T23:56:58.334Z,11.80
2018-05-21T23:59:26.670Z,11.80
